createdAt,value
2023-04-16T00:01:45.788Z,101192.13
2023-04-16T00:04:12.504Z,101194.97
2023-04-16T00:06:39.201Z,101195.97
2023-04-16T00:09:05.839Z,101193.28
2023-04-16T00:11:33.825Z,101200.66
2023-04-16T00:14:00.418Z,101193.41
2023-04-16T00:16:27.958Z,101202.38
2023-04-16T00:18:54.635Z,101205.09
2023-04-16T00:21:21.244Z,101197.97
2023-04-16T00:23:47.823Z,101199.69
2023-04-16T00:26:14.389Z,101196.97
2023-04-16T00:28:42.371Z,101200.66
2023-04-16T00:31:09.053Z,101198.25
2023-04-16T00:33:35.734Z,101203.66
2023-04-16T00:36:02.403Z,101194.81
2023-04-16T00:38:29.015Z,101201.09
2023-04-16T00:40:55.747Z,101197.53
2023-04-16T00:43:23.640Z,101203.78
2023-04-16T00:45:53.158Z,101207.66
2023-04-16T00:48:20.569Z,101201.50
2023-04-16T00:50:47.383Z,101202.50
2023-04-16T00:53:14.294Z,101199.81
2023-04-16T00:55:41.165Z,101201.81
2023-04-16T00:58:07.948Z,101209.19
2023-04-16T01:00:34.514Z,101209.34
2023-04-16T01:03:02.755Z,101212.91
2023-04-16T01:05:30.180Z,101211.22
2023-04-16T01:07:59.063Z,101215.75
2023-04-16T01:10:25.870Z,101219.63
2023-04-16T01:12:52.422Z,101225.03
2023-04-16T01:15:19.298Z,101219.88
2023-04-16T01:17:46.165Z,101221.16
2023-04-16T01:20:14.565Z,101217.75
2023-04-16T01:22:42.528Z,101227.72
2023-04-16T01:25:13.352Z,101225.25
2023-04-16T01:27:39.983Z,101234.53
2023-04-16T01:30:07.977Z,101240.03
2023-04-16T01:32:34.592Z,101236.47
2023-04-16T01:35:01.312Z,101235.63
2023-04-16T01:37:28.227Z,101236.63
2023-04-16T01:39:56.327Z,101239.47
2023-04-16T01:42:22.913Z,101238.75
2023-04-16T01:44:49.494Z,101246.00
2023-04-16T01:47:16.112Z,101247.00
2023-04-16T01:49:43.185Z,101249.81
2023-04-16T01:52:09.835Z,101242.88
2023-04-16T01:54:36.430Z,101243.00
2023-04-16T01:57:04.435Z,101239.59
2023-04-16T01:59:30.997Z,101247.69
2023-04-16T02:02:00.789Z,101253.97
2023-04-16T02:04:27.454Z,101253.34
2023-04-16T02:06:54.071Z,101256.34
2023-04-16T02:09:20.669Z,101247.53
2023-04-16T02:11:47.262Z,101250.09
2023-04-16T02:14:15.301Z,101256.34
2023-04-16T02:16:41.926Z,101251.81
2023-04-16T02:19:08.846Z,101257.19
2023-04-16T02:21:35.537Z,101265.44
2023-04-16T02:24:02.157Z,101262.03
2023-04-16T02:26:28.734Z,101264.88
2023-04-16T02:28:55.329Z,101259.75
2023-04-16T02:31:23.391Z,101262.56
2023-04-16T02:33:50.094Z,101261.00
2023-04-16T02:36:16.771Z,101265.56
2023-04-16T02:38:43.310Z,101273.94
2023-04-16T02:41:10.004Z,101274.19
2023-04-16T02:43:36.732Z,101269.81
2023-04-16T02:46:03.450Z,101269.81
2023-04-16T02:48:31.933Z,101279.03
2023-04-16T02:50:58.718Z,101273.75
2023-04-16T02:53:25.350Z,101282.88
2023-04-16T02:55:53.600Z,101281.03
2023-04-16T02:58:20.365Z,101280.16
2023-04-16T03:00:47.402Z,101283.84
2023-04-16T03:03:14.369Z,101284.13
2023-04-16T03:05:42.871Z,101280.69
2023-04-16T03:08:09.576Z,101286.97
2023-04-16T03:10:36.259Z,101284.38
2023-04-16T03:13:03.725Z,101290.06
2023-04-16T03:15:31.091Z,101290.19
2023-04-16T03:17:57.895Z,101291.06
2023-04-16T03:20:24.637Z,101290.19
2023-04-16T03:22:52.644Z,101289.22
2023-04-16T03:25:19.346Z,101293.75
2023-04-16T03:27:46.009Z,101288.34
2023-04-16T03:30:13.547Z,101286.66
2023-04-16T03:32:40.795Z,101286.78
2023-04-16T03:35:08.540Z,101290.59
2023-04-16T03:37:35.790Z,101290.59
2023-04-16T03:40:04.192Z,101294.31
2023-04-16T03:42:30.808Z,101294.31
2023-04-16T03:44:57.368Z,101290.75
2023-04-16T03:47:23.967Z,101295.28
2023-04-16T03:49:50.831Z,101298.00
2023-04-16T03:52:17.420Z,101292.72
2023-04-16T03:54:44.037Z,101300.97
2023-04-16T03:57:11.995Z,101312.75
2023-04-16T03:59:38.597Z,101304.66
2023-04-16T04:02:05.289Z,101320.69
2023-04-16T04:04:32.281Z,101315.31
2023-04-16T04:06:58.999Z,101318.84
2023-04-16T04:09:25.593Z,101324.53
2023-04-16T04:11:52.157Z,101330.91
2023-04-16T04:14:20.218Z,101335.34
2023-04-16T04:16:46.853Z,101336.09
2023-04-16T04:19:13.553Z,101331.50
2023-04-16T04:21:40.073Z,101329.81
2023-04-16T04:24:06.644Z,101340.75
2023-04-16T04:26:33.275Z,101345.16
2023-04-16T04:28:59.908Z,101347.72
2023-04-16T04:31:27.938Z,101350.56
2023-04-16T04:33:54.639Z,101344.19
2023-04-16T04:36:21.206Z,101361.09
2023-04-16T04:38:47.857Z,101353.84
2023-04-16T04:41:14.439Z,101353.97
2023-04-16T04:43:41.048Z,101352.28
2023-04-16T04:46:07.692Z,101363.09
2023-04-16T04:48:35.855Z,101359.38
2023-04-16T04:51:04.739Z,101358.50
2023-04-16T04:53:31.731Z,101364.78
2023-04-16T04:56:05.497Z,101366.50
2023-04-16T04:58:38.628Z,101365.63
2023-04-16T05:01:05.347Z,101370.06
2023-04-16T05:03:32.076Z,101363.78
2023-04-16T05:06:00.112Z,101366.50
2023-04-16T05:08:26.689Z,101369.31
2023-04-16T05:10:53.301Z,101371.19
2023-04-16T05:13:19.935Z,101370.31
2023-04-16T05:15:46.706Z,101376.59
2023-04-16T05:18:13.248Z,101379.28
2023-04-16T05:20:39.805Z,101377.56
2023-04-16T05:23:07.900Z,101383.84
2023-04-16T05:25:34.851Z,101383.84
2023-04-16T05:28:01.490Z,101386.38
2023-04-16T05:30:28.113Z,101389.81
2023-04-16T05:32:54.709Z,101400.50
2023-04-16T05:35:21.518Z,101396.94
2023-04-16T05:37:48.103Z,101399.50
2023-04-16T05:40:16.305Z,101403.78
2023-04-16T05:42:42.902Z,101404.78
2023-04-16T05:45:10.461Z,101407.19
2023-04-16T05:47:37.328Z,101398.13
2023-04-16T05:50:04.355Z,101408.81
2023-04-16T05:52:30.951Z,101412.38
2023-04-16T05:54:57.512Z,101408.81
2023-04-16T05:57:25.643Z,101414.91
2023-04-16T05:59:52.211Z,101423.88
2023-04-16T06:02:19.525Z,101417.63
2023-04-16T06:04:46.205Z,101423.75
2023-04-16T06:07:12.795Z,101420.91
2023-04-16T06:09:39.394Z,101428.03
2023-04-16T06:12:06.065Z,101423.47
2023-04-16T06:14:34.016Z,101426.06
2023-04-16T06:17:00.621Z,101433.31
2023-04-16T06:19:27.213Z,101430.72
2023-04-16T06:21:54.237Z,101433.44
2023-04-16T06:24:20.877Z,101439.56
2023-04-16T06:26:47.479Z,101436.88
2023-04-16T06:29:14.014Z,101439.56
2023-04-16T06:31:42.246Z,101441.25
2023-04-16T06:34:09.256Z,101444.97
2023-04-16T06:36:35.874Z,101443.97
2023-04-16T06:39:02.445Z,101450.38
2023-04-16T06:41:29.035Z,101448.38
2023-04-16T06:43:55.747Z,101451.09
2023-04-16T06:46:22.416Z,101450.22
2023-04-16T06:48:50.612Z,101449.13
2023-04-16T06:51:17.237Z,101457.06
2023-04-16T06:53:43.866Z,101445.44
2023-04-16T06:56:10.426Z,101457.94
2023-04-16T06:58:37.215Z,101457.69
2023-04-16T07:01:04.433Z,101457.44
2023-04-16T07:03:31.588Z,101461.69
2023-04-16T07:05:59.824Z,101464.28
2023-04-16T07:08:26.485Z,101464.56
2023-04-16T07:10:54.206Z,101467.25
2023-04-16T07:13:21.121Z,101470.06
2023-04-16T07:15:47.985Z,101468.22
2023-04-16T07:18:14.710Z,101467.09
2023-04-16T07:20:41.458Z,101475.81
2023-04-16T07:23:09.427Z,101470.25
2023-04-16T07:25:36.030Z,101477.41
2023-04-16T07:28:03.553Z,101483.38
2023-04-16T07:30:30.137Z,101492.22
2023-04-16T07:32:57.073Z,101481.41
2023-04-16T07:35:23.758Z,101491.97
2023-04-16T07:37:50.348Z,101488.28
2023-04-16T07:40:18.392Z,101491.09
2023-04-16T07:42:44.989Z,101499.31
2023-04-16T07:45:11.952Z,101498.63
2023-04-16T07:47:38.623Z,101505.00
2023-04-16T07:50:06.637Z,101501.19
2023-04-16T07:52:33.269Z,101506.22
2023-04-16T07:54:59.799Z,101507.66
2023-04-16T07:57:27.984Z,101506.25
2023-04-16T07:59:54.555Z,101508.56
2023-04-16T08:02:21.280Z,101508.34
2023-04-16T08:04:48.180Z,101511.63
2023-04-16T08:07:14.924Z,101511.34
2023-04-16T08:09:48.178Z,101508.13
2023-04-16T08:12:14.964Z,101517.53
2023-04-16T08:14:43.107Z,101514.72
2023-04-16T08:17:09.694Z,101515.16
2023-04-16T08:19:36.332Z,101522.72
2023-04-16T08:22:02.994Z,101520.16
2023-04-16T08:24:29.735Z,101526.84
2023-04-16T08:27:02.466Z,101528.69
2023-04-16T08:29:38.217Z,101536.94
2023-04-16T08:32:06.823Z,101535.22
2023-04-16T08:34:33.445Z,101540.22
2023-04-16T08:37:00.046Z,101552.63
2023-04-16T08:39:26.630Z,101546.94
2023-04-16T08:41:54.341Z,101550.38
2023-04-16T08:44:25.767Z,101553.69
2023-04-16T08:46:53.909Z,101559.66
2023-04-16T08:49:22.088Z,101563.53
2023-04-16T08:51:50.949Z,101561.78
2023-04-16T08:54:26.431Z,101559.94
2023-04-16T08:56:53.979Z,101566.34
2023-04-16T08:59:21.815Z,101564.63
2023-04-16T09:01:48.775Z,101560.06
2023-04-16T09:04:16.321Z,101563.91
2023-04-16T09:06:45.892Z,101564.78
2023-04-16T09:09:13.008Z,101570.03
2023-04-16T09:11:39.572Z,101565.22
2023-04-16T09:14:09.726Z,101563.81
2023-04-16T09:16:36.718Z,101571.41
2023-04-16T09:19:03.381Z,101571.88
2023-04-16T09:21:30.173Z,101567.63
2023-04-16T09:23:59.708Z,101572.50
2023-04-16T09:26:27.742Z,101575.63
2023-04-16T09:28:54.369Z,101575.38
2023-04-16T09:31:21.687Z,101570.41
2023-04-16T09:34:02.172Z,101575.25
2023-04-16T09:36:29.174Z,101577.97
2023-04-16T09:38:57.491Z,101576.69
2023-04-16T09:41:27.540Z,101579.13
2023-04-16T09:43:55.254Z,101586.25
2023-04-16T09:46:22.135Z,101579.13
2023-04-16T09:48:48.855Z,101586.84
2023-04-16T09:51:15.642Z,101588.44
2023-04-16T09:53:42.270Z,101588.44
2023-04-16T09:56:09.178Z,101591.13
2023-04-16T09:58:37.494Z,101596.25
2023-04-16T10:01:07.811Z,101588.31
2023-04-16T10:03:37.270Z,101591.59
2023-04-16T10:06:16.046Z,101593.44
2023-04-16T10:08:49.659Z,101599.84
2023-04-16T10:11:17.666Z,101597.41
2023-04-16T10:13:46.211Z,101602.09
2023-04-16T10:16:13.241Z,101604.69
2023-04-16T10:18:41.677Z,101609.97
2023-04-16T10:21:08.827Z,101599.25
2023-04-16T10:23:36.275Z,101604.41
2023-04-16T10:26:03.378Z,101608.53
2023-04-16T10:28:30.928Z,101612.69
2023-04-16T10:31:00.775Z,101611.69
2023-04-16T10:33:29.387Z,101612.28
2023-04-16T10:36:08.219Z,101606.88
2023-04-16T10:38:37.839Z,101607.03
2023-04-16T10:41:06.203Z,101613.03
2023-04-16T10:43:38.476Z,101614.03
2023-04-16T10:46:20.474Z,101607.81
2023-04-16T10:48:50.105Z,101615.25
2023-04-16T10:51:25.457Z,101613.69
2023-04-16T10:53:53.792Z,101617.09
2023-04-16T10:56:23.748Z,101619.13
2023-04-16T10:58:50.440Z,101611.25
2023-04-16T11:01:17.303Z,101617.25
2023-04-16T11:03:47.191Z,101623.41
2023-04-16T11:06:15.728Z,101616.25
2023-04-16T11:08:53.895Z,101619.25
2023-04-16T11:11:22.367Z,101612.13
2023-04-16T11:13:49.295Z,101613.84
2023-04-16T11:16:16.848Z,101621.00
2023-04-16T11:18:51.108Z,101618.41
2023-04-16T11:21:19.427Z,101620.38
2023-04-16T11:23:47.467Z,101617.41
2023-04-16T11:26:24.790Z,101627.28
2023-04-16T11:28:51.660Z,101627.09
2023-04-16T11:31:18.438Z,101625.56
2023-04-16T11:33:46.572Z,101632.53
2023-04-16T11:36:13.272Z,101631.25
2023-04-16T11:38:39.894Z,101632.97
2023-04-16T11:41:07.128Z,101631.97
2023-04-16T11:43:33.836Z,101635.69
2023-04-16T11:46:07.479Z,101644.69
2023-04-16T11:48:48.582Z,101641.25
2023-04-16T11:51:15.616Z,101647.53
2023-04-16T11:53:47.207Z,101650.25
2023-04-16T11:56:14.766Z,101647.53
2023-04-16T11:58:42.484Z,101652.94
2023-04-16T12:01:10.271Z,101647.53
2023-04-16T12:03:43.118Z,101653.81
2023-04-16T12:06:11.544Z,101651.97
2023-04-16T12:08:38.333Z,101652.81
2023-04-16T12:11:05.090Z,101665.53
2023-04-16T12:13:31.795Z,101656.94
2023-04-16T12:15:58.418Z,101659.50
2023-04-16T12:18:26.213Z,101653.66
2023-04-16T12:20:53.094Z,101658.50
2023-04-16T12:23:26.164Z,101668.78
2023-04-16T12:25:53.553Z,101663.78
2023-04-16T12:28:31.263Z,101669.63
2023-04-16T12:30:58.145Z,101665.47
2023-04-16T12:33:25.237Z,101668.47
2023-04-16T12:35:51.993Z,101667.84
2023-04-16T12:38:18.813Z,101673.44
2023-04-16T12:40:47.114Z,101661.00
2023-04-16T12:43:13.944Z,101661.00
2023-04-16T12:45:41.113Z,101666.28
2023-04-16T12:48:07.851Z,101669.97
2023-04-16T12:50:34.729Z,101665.28
2023-04-16T12:53:01.475Z,101666.00
2023-04-16T12:55:29.523Z,101667.75
2023-04-16T12:57:57.576Z,101667.47
2023-04-16T13:00:24.330Z,101665.19
2023-04-16T13:02:51.239Z,101675.75
2023-04-16T13:05:18.053Z,101662.91
2023-04-16T13:07:44.916Z,101675.19
2023-04-16T13:10:11.897Z,101671.94
2023-04-16T13:12:38.576Z,101674.94
2023-04-16T13:15:07.845Z,101665.38
2023-04-16T13:17:34.548Z,101669.22
2023-04-16T13:20:01.194Z,101673.38
2023-04-16T13:22:28.380Z,101672.69
2023-04-16T13:24:55.474Z,101669.25
2023-04-16T13:27:22.169Z,101674.94
2023-04-16T13:29:49.034Z,101666.53
2023-04-16T13:32:17.512Z,101675.81
2023-04-16T13:34:44.736Z,101677.09
2023-04-16T13:37:11.504Z,101683.50
2023-04-16T13:39:38.231Z,101680.78
2023-04-16T13:42:05.098Z,101676.34
2023-04-16T13:44:31.733Z,101673.94
2023-04-16T13:46:58.804Z,101679.66
2023-04-16T13:49:26.965Z,101678.38
2023-04-16T13:51:53.566Z,101682.38
2023-04-16T13:54:20.291Z,101674.38
2023-04-16T13:56:47.240Z,101682.94
2023-04-16T13:59:14.184Z,101678.94
2023-04-16T14:01:40.930Z,101682.81
2023-04-16T14:04:07.908Z,101679.53
2023-04-16T14:06:35.999Z,101683.34
2023-04-16T14:09:02.665Z,101687.53
2023-04-16T14:11:29.333Z,101690.50
2023-04-16T14:13:56.145Z,101681.53
2023-04-16T14:16:22.984Z,101685.34
2023-04-16T14:18:49.770Z,101679.94
2023-04-16T14:21:16.514Z,101686.09
2023-04-16T14:23:45.137Z,101682.34
2023-04-16T14:26:11.983Z,101687.53
2023-04-16T14:28:38.752Z,101680.38
2023-04-16T14:31:05.397Z,101684.94
2023-04-16T14:33:32.077Z,101694.63
2023-04-16T14:36:00.072Z,101692.09
2023-04-16T14:38:28.797Z,101683.66
2023-04-16T14:40:56.902Z,101692.66
2023-04-16T14:43:23.622Z,101691.78
2023-04-16T14:45:50.298Z,101699.06
2023-04-16T14:48:17.176Z,101695.66
2023-04-16T14:50:44.149Z,101701.78
2023-04-16T14:53:11.375Z,101695.22
2023-04-16T14:55:38.141Z,101694.94
2023-04-16T14:58:06.203Z,101701.53
2023-04-16T15:00:35.062Z,101699.81
2023-04-16T15:03:01.964Z,101697.94
2023-04-16T15:05:29.930Z,101702.22
2023-04-16T15:07:56.642Z,101699.38
2023-04-16T15:10:23.315Z,101696.66
2023-04-16T15:12:49.941Z,101698.66
2023-04-16T15:15:17.975Z,101709.50
2023-04-16T15:17:45.333Z,101706.53
2023-04-16T15:20:12.866Z,101706.53
2023-04-16T15:22:40.120Z,101708.09
2023-04-16T15:25:07.636Z,101706.94
2023-04-16T15:27:34.619Z,101708.66
2023-04-16T15:30:01.299Z,101706.66
2023-04-16T15:32:29.332Z,101706.38
2023-04-16T15:34:56.023Z,101709.78
2023-04-16T15:37:23.459Z,101710.66
2023-04-16T15:39:50.259Z,101713.22
2023-04-16T15:42:17.322Z,101713.22
2023-04-16T15:44:44.250Z,101716.94
2023-04-16T15:47:10.958Z,101715.81
2023-04-16T15:49:38.990Z,101714.09
2023-04-16T15:52:05.744Z,101722.22
2023-04-16T15:54:32.465Z,101713.22
2023-04-16T15:56:59.333Z,101719.66
2023-04-16T15:59:26.681Z,101723.66
2023-04-16T16:01:53.478Z,101728.38
2023-04-16T16:04:20.589Z,101725.78
2023-04-16T16:06:49.009Z,101730.34
2023-04-16T16:09:15.742Z,101729.66
2023-04-16T16:11:42.401Z,101726.34
2023-04-16T16:14:09.211Z,101732.94
2023-04-16T16:16:36.014Z,101733.06
2023-04-16T16:19:02.814Z,101735.78
2023-04-16T16:21:30.222Z,101730.34
2023-04-16T16:23:58.382Z,101743.91
2023-04-16T16:26:25.130Z,101744.31
2023-04-16T16:28:51.890Z,101739.19
2023-04-16T16:31:18.558Z,101736.59
2023-04-16T16:33:45.436Z,101742.03
2023-04-16T16:36:12.323Z,101743.19
2023-04-16T16:38:39.261Z,101744.34
2023-04-16T16:41:07.502Z,101741.63
2023-04-16T16:43:34.927Z,101747.31
2023-04-16T16:46:01.698Z,101742.03
2023-04-16T16:48:29.050Z,101751.44
2023-04-16T16:50:55.870Z,101755.16
2023-04-16T16:53:22.690Z,101759.72
2023-04-16T16:55:49.235Z,101755.28
2023-04-16T16:58:17.414Z,101761.00
2023-04-16T17:00:44.209Z,101765.56
2023-04-16T17:03:11.419Z,101778.53
2023-04-16T17:05:38.333Z,101769.09
2023-04-16T17:08:05.326Z,101778.50
2023-04-16T17:10:32.056Z,101780.75
2023-04-16T17:12:58.862Z,101781.41
2023-04-16T17:15:27.110Z,101793.75
2023-04-16T17:17:54.050Z,101790.63
2023-04-16T17:20:21.007Z,101792.72
2023-04-16T17:22:47.774Z,101789.44
2023-04-16T17:25:14.695Z,101794.53
2023-04-16T17:27:41.478Z,101797.78
2023-04-16T17:30:09.123Z,101800.88
2023-04-16T17:32:37.376Z,101801.44
2023-04-16T17:35:04.828Z,101814.97
2023-04-16T17:37:31.925Z,101810.94
2023-04-16T17:39:58.634Z,101816.00
2023-04-16T17:42:25.326Z,101810.00
2023-04-16T17:44:52.105Z,101821.09
2023-04-16T17:47:18.858Z,101823.34
2023-04-16T17:49:47.012Z,101824.72
2023-04-16T17:52:14.065Z,101827.69
2023-04-16T17:54:41.740Z,101829.81
2023-04-16T17:57:08.461Z,101825.50
2023-04-16T17:59:35.156Z,101832.91
2023-04-16T18:02:02.058Z,101838.56
2023-04-16T18:04:29.169Z,101844.97
2023-04-16T18:06:57.981Z,101846.81
2023-04-16T18:09:24.818Z,101849.53
2023-04-16T18:11:51.595Z,101849.63
2023-04-16T18:14:18.398Z,101851.75
2023-04-16T18:16:46.676Z,101863.56
2023-04-16T18:19:13.354Z,101866.41
2023-04-16T18:21:40.024Z,101868.38
2023-04-16T18:24:08.882Z,101868.63
2023-04-16T18:26:35.934Z,101870.59
2023-04-16T18:29:03.922Z,101876.00
2023-04-16T18:31:30.914Z,101876.00
2023-04-16T18:33:58.574Z,101872.59
2023-04-16T18:36:25.723Z,101877.41
2023-04-16T18:39:00.270Z,101891.03
2023-04-16T18:41:30.647Z,101888.44
2023-04-16T18:43:57.465Z,101885.03
2023-04-16T18:46:24.346Z,101897.69
2023-04-16T18:48:51.174Z,101898.66
2023-04-16T18:51:17.902Z,101891.53
2023-04-16T18:53:44.715Z,101897.09
2023-04-16T18:56:11.488Z,101895.47
2023-04-16T18:58:39.621Z,101906.31
2023-04-16T19:01:06.203Z,101904.59
2023-04-16T19:03:32.952Z,101898.44
2023-04-16T19:05:59.682Z,101912.84
2023-04-16T19:08:26.260Z,101906.56
2023-04-16T19:10:52.964Z,101916.50
2023-04-16T19:13:19.555Z,101906.56
2023-04-16T19:15:47.797Z,101911.97
2023-04-16T19:18:14.522Z,101916.41
2023-04-16T19:20:41.242Z,101913.81
2023-04-16T19:23:07.817Z,101915.66
2023-04-16T19:25:34.825Z,101923.28
2023-04-16T19:28:01.419Z,101921.81
2023-04-16T19:30:28.159Z,101925.75
2023-04-16T19:32:56.135Z,101922.53
2023-04-16T19:35:23.115Z,101923.56
2023-04-16T19:37:50.057Z,101926.38
2023-04-16T19:40:16.836Z,101924.78
2023-04-16T19:42:43.418Z,101931.28
2023-04-16T19:45:10.261Z,101930.75
2023-04-16T19:47:36.884Z,101926.72
2023-04-16T19:50:05.557Z,101925.25
2023-04-16T19:52:32.120Z,101932.69
2023-04-16T19:54:58.838Z,101945.59
2023-04-16T19:57:25.460Z,101933.31
2023-04-16T19:59:54.062Z,101938.84
2023-04-16T20:02:21.773Z,101945.34
2023-04-16T20:04:48.483Z,101943.63
2023-04-16T20:07:16.450Z,101949.78
2023-04-16T20:09:43.057Z,101953.72
2023-04-16T20:12:09.633Z,101951.22
2023-04-16T20:14:36.255Z,101946.19
2023-04-16T20:17:03.247Z,101950.84
2023-04-16T20:19:29.862Z,101956.38
2023-04-16T20:21:56.522Z,101951.22
2023-04-16T20:24:24.689Z,101953.16
2023-04-16T20:26:51.509Z,101953.41
2023-04-16T20:29:18.041Z,101948.97
2023-04-16T20:31:44.607Z,101951.81
2023-04-16T20:34:11.269Z,101956.47
2023-04-16T20:36:37.878Z,101959.16
2023-04-16T20:39:04.430Z,101961.25
2023-04-16T20:41:32.500Z,101955.22
2023-04-16T20:43:59.133Z,101959.00
2023-04-16T20:46:25.723Z,101958.13
2023-04-16T20:48:52.380Z,101958.38
2023-04-16T20:51:18.957Z,101963.06
2023-04-16T20:53:45.550Z,101968.56
2023-04-16T20:56:12.343Z,101964.13
2023-04-16T20:58:40.841Z,101965.09
2023-04-16T21:01:07.561Z,101959.72
2023-04-16T21:03:34.473Z,101971.50
2023-04-16T21:06:01.231Z,101970.91
2023-04-16T21:08:27.979Z,101970.25
2023-04-16T21:10:54.766Z,101971.44
2023-04-16T21:13:21.396Z,101968.03
2023-04-16T21:15:49.470Z,101964.31
2023-04-16T21:18:16.291Z,101961.50
2023-04-16T21:20:42.848Z,101963.25
2023-04-16T21:23:09.481Z,101964.09
2023-04-16T21:25:36.091Z,101965.19
2023-04-16T21:28:02.878Z,101968.66
2023-04-16T21:30:29.768Z,101970.59
2023-04-16T21:32:57.914Z,101975.97
2023-04-16T21:35:24.610Z,101968.03
2023-04-16T21:37:51.196Z,101977.09
2023-04-16T21:40:17.972Z,101966.53
2023-04-16T21:42:44.621Z,101975.59
2023-04-16T21:45:12.148Z,101973.78
2023-04-16T21:47:38.916Z,101965.78
2023-04-16T21:50:08.299Z,101974.84
2023-04-16T21:52:34.976Z,101968.72
2023-04-16T21:55:01.492Z,101974.09
2023-04-16T21:57:28.138Z,101967.75
2023-04-16T21:59:55.123Z,101967.84
2023-04-16T22:02:21.979Z,101967.22
2023-04-16T22:04:48.726Z,101974.44
2023-04-16T22:07:16.816Z,101963.75
2023-04-16T22:09:43.510Z,101969.41
2023-04-16T22:12:10.121Z,101978.47
2023-04-16T22:14:39.237Z,101975.75
2023-04-16T22:17:08.887Z,101982.25
2023-04-16T22:19:35.501Z,101988.63
2023-04-16T22:22:02.061Z,101991.44
2023-04-16T22:24:30.167Z,101981.63
2023-04-16T22:26:56.748Z,101988.00
2023-04-16T22:29:23.393Z,101987.25
2023-04-16T22:31:49.992Z,101989.94
2023-04-16T22:34:16.670Z,101986.50
2023-04-16T22:36:43.264Z,101993.75
2023-04-16T22:39:10.079Z,101990.19
2023-04-16T22:41:38.443Z,101987.59
2023-04-16T22:44:05.222Z,101990.28
2023-04-16T22:46:31.972Z,101992.97
2023-04-16T22:48:58.613Z,101986.72
2023-04-16T22:51:25.154Z,101984.16
2023-04-16T22:53:51.821Z,101984.16
2023-04-16T22:56:18.716Z,101979.81
2023-04-16T22:58:46.724Z,101983.72
2023-04-16T23:01:13.345Z,101986.56
2023-04-16T23:03:40.094Z,101985.78
2023-04-16T23:06:07.010Z,101985.91
2023-04-16T23:08:33.672Z,101990.66
2023-04-16T23:11:00.302Z,101998.88
2023-04-16T23:13:26.948Z,101991.75
2023-04-16T23:15:55.003Z,101991.75
2023-04-16T23:18:21.720Z,101989.06
2023-04-16T23:20:50.760Z,101989.16
2023-04-16T23:23:17.558Z,101998.22
2023-04-16T23:25:44.188Z,101995.53
2023-04-16T23:28:10.775Z,101996.38
2023-04-16T23:30:37.390Z,101993.81
2023-04-16T23:33:05.500Z,101992.09
2023-04-16T23:35:32.528Z,101997.59
2023-04-16T23:37:59.145Z,101995.03
2023-04-16T23:40:25.763Z,101998.69
2023-04-16T23:42:52.339Z,101997.81
2023-04-16T23:45:19.068Z,101996.97
2023-04-16T23:47:45.809Z,102002.34
2023-04-16T23:50:13.885Z,102003.31
2023-04-16T23:52:40.472Z,101994.50
2023-04-16T23:55:07.818Z,101996.31
2023-04-16T23:57:34.441Z,101993.84
